Lucas, Kansas
Current Conditions -  °F | °C
As of 9:53 AM on Sunday 21 Dec 2014 (Local Time) from KRSL Reporting Station
Haze Haze  
Wind Chill: 33°   Ceiling: 800
Heat Index: 41°   Visibility: 6mi
Dew Point: 40°   Wind: 15mph
Humidity: 96%   Direction: 190°S
Pressure: 29.83"   Gusts: NA
Location:  39.06°N, 98.54°W
Report Text: KRSL 211553Z AUTO 19013KT 6SM BR OVC008 05/04 A2983 RMK AO2 CIG 006V011 SLP113 T00500044
Loading
Personal Weather Stations






























Interactive Weather Map New forecast layout! Learn more

10-Day Weather Forecast

Advertisements
Track Severe Weather on mobile